sensor_id;sensor_type;location;lat;lon;timestamp;pressure;altitude;pressure_sealevel;temperature;humidity
61318;BME280;47201;40.428;-8.436;2023-05-19T09:00:23;100958.06;;;23.87;72.86
61318;BME280;47201;40.428;-8.436;2023-05-19T09:02:25;100954.97;;;23.79;72.88
61318;BME280;47201;40.428;-8.436;2023-05-19T09:04:26;100955.59;;;24.81;71.83
61318;BME280;47201;40.428;-8.436;2023-05-19T09:06:46;100977.19;;;23.79;73.32
61318;BME280;47201;40.428;-8.436;2023-05-19T09:08:47;100958.69;;;24.58;72.53
61318;BME280;47201;40.428;-8.436;2023-05-19T09:11:08;100952.91;;;24.33;72.33
61318;BME280;47201;40.428;-8.436;2023-05-19T09:15:46;100952.03;;;24.17;72.78
61318;BME280;47201;40.428;-8.436;2023-05-19T09:17:48;100949.09;;;24.71;72.22
61318;BME280;47201;40.428;-8.436;2023-05-19T09:19:48;100939.25;;;25.02;71.83
61318;BME280;47201;40.428;-8.436;2023-05-19T09:22:07;100951.31;;;26.28;70.56
61318;BME280;47201;40.428;-8.436;2023-05-19T09:35:18;100948.72;;;26.12;70.00
61318;BME280;47201;40.428;-8.436;2023-05-19T09:37:38;100947.47;;;26.03;70.89
61318;BME280;47201;40.428;-8.436;2023-05-19T09:39:39;100921.06;;;25.39;71.22
61318;BME280;47201;40.428;-8.436;2023-05-19T09:41:40;100941.34;;;24.97;72.24
61318;BME280;47201;40.428;-8.436;2023-05-19T09:43:41;100942.50;;;25.68;72.02
61318;BME280;47201;40.428;-8.436;2023-05-19T09:45:42;100944.75;;;26.74;70.18
61318;BME280;47201;40.428;-8.436;2023-05-19T09:48:04;100951.22;;;27.12;69.31
61318;BME280;47201;40.428;-8.436;2023-05-19T09:52:44;100940.13;;;26.90;69.71
61318;BME280;47201;40.428;-8.436;2023-05-19T09:54:45;100939.06;;;26.24;70.08
61318;BME280;47201;40.428;-8.436;2023-05-19T09:57:13;100956.09;;;26.65;69.70
61318;BME280;47201;40.428;-8.436;2023-05-19T09:59:14;100954.94;;;26.27;70.32
61318;BME280;47201;40.428;-8.436;2023-05-19T10:01:16;100958.97;;;27.16;69.95
61318;BME280;47201;40.428;-8.436;2023-05-19T10:03:17;100948.59;;;27.37;69.81
61318;BME280;47201;40.428;-8.436;2023-05-19T10:05:19;100938.31;;;27.57;69.58
61318;BME280;47201;40.428;-8.436;2023-05-19T10:07:22;100946.97;;;27.22;69.81
61318;BME280;47201;40.428;-8.436;2023-05-19T10:09:25;100955.81;;;26.13;71.34
61318;BME280;47201;40.428;-8.436;2023-05-19T10:11:26;100953.97;;;25.99;71.56
61318;BME280;47201;40.428;-8.436;2023-05-19T10:13:28;100949.03;;;26.91;70.88
61318;BME280;47201;40.428;-8.436;2023-05-19T10:15:30;100952.16;;;28.02;69.15
61318;BME280;47201;40.428;-8.436;2023-05-19T10:17:33;100960.44;;;27.99;68.77
61318;BME280;47201;40.428;-8.436;2023-05-19T10:19:34;100956.25;;;27.82;69.23
61318;BME280;47201;40.428;-8.436;2023-05-19T10:21:36;100941.78;;;27.59;69.76
61318;BME280;47201;40.428;-8.436;2023-05-19T10:23:37;100941.41;;;27.90;69.14
61318;BME280;47201;40.428;-8.436;2023-05-19T10:25:38;100941.22;;;27.67;69.98
61318;BME280;47201;40.428;-8.436;2023-05-19T10:27:45;100948.84;;;27.86;69.46
61318;BME280;47201;40.428;-8.436;2023-05-19T10:29:50;100929.56;;;28.55;68.79
61318;BME280;47201;40.428;-8.436;2023-05-19T10:31:54;100918.53;;;29.31;68.64
61318;BME280;47201;40.428;-8.436;2023-05-19T10:34:22;100933.53;;;28.62;68.43
61318;BME280;47201;40.428;-8.436;2023-05-19T10:36:43;100937.38;;;27.84;69.67
61318;BME280;47201;40.428;-8.436;2023-05-19T10:39:06;100930.22;;;28.83;68.79
61318;BME280;47201;40.428;-8.436;2023-05-19T10:45:51;100916.47;;;28.75;68.42
61318;BME280;47201;40.428;-8.436;2023-05-19T10:47:53;100924.25;;;28.67;69.77
61318;BME280;47201;40.428;-8.436;2023-05-19T10:49:54;100923.34;;;29.39;68.69
61318;BME280;47201;40.428;-8.436;2023-05-19T10:51:55;100915.53;;;29.11;69.02
61318;BME280;47201;40.428;-8.436;2023-05-19T10:53:56;100918.34;;;28.37;70.23
61318;BME280;47201;40.428;-8.436;2023-05-19T10:56:00;100935.03;;;28.67;70.72
61318;BME280;47201;40.428;-8.436;2023-05-19T10:58:03;100917.22;;;28.77;69.17
61318;BME280;47201;40.428;-8.436;2023-05-19T11:00:28;100933.59;;;27.74;70.44
61318;BME280;47201;40.428;-8.436;2023-05-19T11:02:42;100939.94;;;27.98;70.34
61318;BME280;47201;40.428;-8.436;2023-05-19T11:04:47;100921.84;;;28.75;70.27
61318;BME280;47201;40.428;-8.436;2023-05-19T11:06:50;100928.34;;;28.72;69.57
61318;BME280;47201;40.428;-8.436;2023-05-19T11:09:01;100934.06;;;28.30;70.01
61318;BME280;47201;40.428;-8.436;2023-05-19T11:11:15;100917.22;;;28.02;69.76
61318;BME280;47201;40.428;-8.436;2023-05-19T11:13:19;100939.09;;;27.59;70.37
61318;BME280;47201;40.428;-8.436;2023-05-19T11:15:26;100931.56;;;27.64;69.87
61318;BME280;47201;40.428;-8.436;2023-05-19T11:17:27;100919.75;;;28.06;70.41
61318;BME280;47201;40.428;-8.436;2023-05-19T11:19:33;100912.53;;;28.06;70.20
61318;BME280;47201;40.428;-8.436;2023-05-19T11:22:06;100912.50;;;28.68;70.12
61318;BME280;47201;40.428;-8.436;2023-05-19T11:24:08;100919.50;;;28.94;69.03
61318;BME280;47201;40.428;-8.436;2023-05-19T11:26:09;100929.31;;;28.71;68.99
61318;BME280;47201;40.428;-8.436;2023-05-19T11:28:10;100908.13;;;28.67;69.51
61318;BME280;47201;40.428;-8.436;2023-05-19T11:33:10;100902.28;;;29.33;69.24
61318;BME280;47201;40.428;-8.436;2023-05-19T11:35:12;100901.56;;;29.65;68.62
61318;BME280;47201;40.428;-8.436;2023-05-19T11:37:14;100898.22;;;29.38;69.38
61318;BME280;47201;40.428;-8.436;2023-05-19T11:39:33;100906.50;;;27.38;71.24
61318;BME280;47201;40.428;-8.436;2023-05-19T11:43:56;100895.84;;;28.01;70.13
61318;BME280;47201;40.428;-8.436;2023-05-19T11:45:57;100896.84;;;28.37;70.54
61318;BME280;47201;40.428;-8.436;2023-05-19T11:48:19;100881.38;;;29.01;69.62
61318;BME280;47201;40.428;-8.436;2023-05-19T11:50:20;100870.81;;;28.86;69.69
61318;BME280;47201;40.428;-8.436;2023-05-19T11:52:43;100879.69;;;28.51;70.68
61318;BME280;47201;40.428;-8.436;2023-05-19T11:55:06;100882.84;;;28.08;69.98
61318;BME280;47201;40.428;-8.436;2023-05-19T11:57:09;100878.66;;;28.16;70.54
61318;BME280;47201;40.428;-8.436;2023-05-19T11:59:31;100872.72;;;29.20;68.88
61318;BME280;47201;40.428;-8.436;2023-05-19T12:01:51;100874.53;;;29.08;69.07
61318;BME280;47201;40.428;-8.436;2023-05-19T12:03:51;100879.06;;;28.72;69.84
61318;BME280;47201;40.428;-8.436;2023-05-19T12:06:11;100864.44;;;29.46;69.89
61318;BME280;47201;40.428;-8.436;2023-05-19T12:08:35;100872.75;;;28.84;69.49
61318;BME280;47201;40.428;-8.436;2023-05-19T12:10:37;100864.25;;;29.02;69.67
61318;BME280;47201;40.428;-8.436;2023-05-19T12:12:39;100849.91;;;29.71;68.71
61318;BME280;47201;40.428;-8.436;2023-05-19T12:17:20;100845.31;;;27.56;70.86
61318;BME280;47201;40.428;-8.436;2023-05-19T12:22:00;100825.41;;;24.98;75.04
61318;BME280;47201;40.428;-8.436;2023-05-19T12:24:05;100822.59;;;25.15;74.79
61318;BME280;47201;40.428;-8.436;2023-05-19T12:26:06;100817.97;;;24.42;74.81
61318;BME280;47201;40.428;-8.436;2023-05-19T12:30:47;100827.56;;;23.98;74.99
61318;BME280;47201;40.428;-8.436;2023-05-19T12:32:48;100838.34;;;23.97;75.42
61318;BME280;47201;40.428;-8.436;2023-05-19T12:34:54;100837.22;;;24.01;75.09
61318;BME280;47201;40.428;-8.436;2023-05-19T12:36:55;100834.69;;;23.82;74.71
61318;BME280;47201;40.428;-8.436;2023-05-19T12:38:57;100828.84;;;24.07;75.15
61318;BME280;47201;40.428;-8.436;2023-05-19T12:40:58;100816.28;;;24.09;75.45
61318;BME280;47201;40.428;-8.436;2023-05-19T12:42:59;100824.28;;;24.09;75.19
61318;BME280;47201;40.428;-8.436;2023-05-19T12:45:02;100816.53;;;24.20;75.55
61318;BME280;47201;40.428;-8.436;2023-05-19T12:47:04;100824.53;;;24.20;76.08
61318;BME280;47201;40.428;-8.436;2023-05-19T12:49:06;100816.78;;;24.32;75.34
61318;BME280;47201;40.428;-8.436;2023-05-19T12:51:25;100810.19;;;24.53;74.90
61318;BME280;47201;40.428;-8.436;2023-05-19T12:53:25;100812.38;;;24.31;75.04
61318;BME280;47201;40.428;-8.436;2023-05-19T12:55:27;100811.19;;;24.36;75.22
61318;BME280;47201;40.428;-8.436;2023-05-19T12:57:28;100809.19;;;24.40;75.71
61318;BME280;47201;40.428;-8.436;2023-05-19T12:59:34;100804.16;;;24.19;75.76
61318;BME280;47201;40.428;-8.436;2023-05-19T13:01:35;100804.53;;;24.28;75.65
61318;BME280;47201;40.428;-8.436;2023-05-19T13:03:39;100794.50;;;24.01;75.30
61318;BME280;47201;40.428;-8.436;2023-05-19T13:10:06;100795.69;;;24.27;73.86
61318;BME280;47201;40.428;-8.436;2023-05-19T13:12:07;100792.13;;;24.43;74.17
61318;BME280;47201;40.428;-8.436;2023-05-19T13:16:45;100796.69;;;25.16;74.03
61318;BME280;47201;40.428;-8.436;2023-05-19T13:18:46;100792.38;;;24.99;73.82
61318;BME280;47201;40.428;-8.436;2023-05-19T13:20:47;100787.59;;;24.90;73.70
61318;BME280;47201;40.428;-8.436;2023-05-19T13:22:49;100783.78;;;24.94;74.92
61318;BME280;47201;40.428;-8.436;2023-05-19T13:24:50;100791.19;;;24.74;74.33
61318;BME280;47201;40.428;-8.436;2023-05-19T13:26:52;100776.50;;;24.96;74.85
61318;BME280;47201;40.428;-8.436;2023-05-19T13:28:53;100771.25;;;24.94;74.98
61318;BME280;47201;40.428;-8.436;2023-05-19T13:30:53;100765.34;;;24.89;74.66
61318;BME280;47201;40.428;-8.436;2023-05-19T13:32:54;100768.03;;;25.03;74.14
61318;BME280;47201;40.428;-8.436;2023-05-19T13:34:55;100782.47;;;25.30;74.51
61318;BME280;47201;40.428;-8.436;2023-05-19T13:36:56;100766.41;;;25.30;74.24
61318;BME280;47201;40.428;-8.436;2023-05-19T13:41:35;100751.09;;;25.17;74.25
61318;BME280;47201;40.428;-8.436;2023-05-19T13:43:57;100761.91;;;25.30;74.11
61318;BME280;47201;40.428;-8.436;2023-05-19T13:46:17;100749.69;;;25.12;74.63
61318;BME280;47201;40.428;-8.436;2023-05-19T13:48:18;100744.63;;;25.22;74.40
61318;BME280;47201;40.428;-8.436;2023-05-19T13:50:19;100742.72;;;25.09;74.93
61318;BME280;47201;40.428;-8.436;2023-05-19T13:52:20;100749.41;;;25.16;74.61
61318;BME280;47201;40.428;-8.436;2023-05-19T13:54:21;100745.19;;;25.27;74.55
61318;BME280;47201;40.428;-8.436;2023-05-19T13:56:40;100742.75;;;25.38;74.47
61318;BME280;47201;40.428;-8.436;2023-05-19T13:58:43;100739.78;;;25.43;74.16
61318;BME280;47201;40.428;-8.436;2023-05-19T14:00:44;100742.97;;;25.62;74.21
61318;BME280;47201;40.428;-8.436;2023-05-19T14:02:45;100734.56;;;25.69;73.69
61318;BME280;47201;40.428;-8.436;2023-05-19T14:05:05;100733.91;;;25.65;73.17
61318;BME280;47201;40.428;-8.436;2023-05-19T14:07:06;100726.06;;;25.33;74.02
61318;BME280;47201;40.428;-8.436;2023-05-19T14:09:07;100725.63;;;25.12;73.85
61318;BME280;47201;40.428;-8.436;2023-05-19T14:11:08;100728.19;;;25.28;73.98
61318;BME280;47201;40.428;-8.436;2023-05-19T14:13:08;100715.69;;;25.43;73.94
61318;BME280;47201;40.428;-8.436;2023-05-19T14:15:11;100711.75;;;25.48;72.92
61318;BME280;47201;40.428;-8.436;2023-05-19T14:19:34;100706.34;;;25.63;73.13
61318;BME280;47201;40.428;-8.436;2023-05-19T14:21:35;100709.44;;;25.57;73.30
61318;BME280;47201;40.428;-8.436;2023-05-19T14:23:56;100698.94;;;25.54;73.17
61318;BME280;47201;40.428;-8.436;2023-05-19T14:26:15;100701.41;;;25.57;72.94
61318;BME280;47201;40.428;-8.436;2023-05-19T14:28:31;100695.69;;;25.48;73.35
61318;BME280;47201;40.428;-8.436;2023-05-19T14:30:31;100698.78;;;25.70;73.32
61318;BME280;47201;40.428;-8.436;2023-05-19T14:32:32;100695.06;;;25.72;73.18
61318;BME280;47201;40.428;-8.436;2023-05-19T14:34:33;100684.94;;;25.63;72.80
61318;BME280;47201;40.428;-8.436;2023-05-19T14:36:34;100685.13;;;25.74;73.32
61318;BME280;47201;40.428;-8.436;2023-05-19T14:38:35;100683.16;;;25.91;73.32
61318;BME280;47201;40.428;-8.436;2023-05-19T14:40:36;100671.84;;;25.86;73.01
61318;BME280;47201;40.428;-8.436;2023-05-19T14:42:37;100688.50;;;25.91;72.76
61318;BME280;47201;40.428;-8.436;2023-05-19T14:44:37;100683.28;;;26.02;72.43
61318;BME280;47201;40.428;-8.436;2023-05-19T14:46:58;100685.41;;;25.97;73.20
61318;BME280;47201;40.428;-8.436;2023-05-19T14:49:18;100684.09;;;26.17;72.58
61318;BME280;47201;40.428;-8.436;2023-05-19T14:51:18;100683.69;;;26.23;72.78
61318;BME280;47201;40.428;-8.436;2023-05-19T14:53:19;100671.66;;;26.29;72.14
61318;BME280;47201;40.428;-8.436;2023-05-19T14:55:20;100676.06;;;26.30;71.87
61318;BME280;47201;40.428;-8.436;2023-05-19T14:57:39;100677.50;;;26.62;71.39
61318;BME280;47201;40.428;-8.436;2023-05-19T14:59:39;100669.31;;;26.24;72.33
61318;BME280;47201;40.428;-8.436;2023-05-19T15:01:40;100668.59;;;26.35;73.11
61318;BME280;47201;40.428;-8.436;2023-05-19T15:03:42;100655.72;;;26.53;72.71
61318;BME280;47201;40.428;-8.436;2023-05-19T15:05:43;100667.09;;;26.44;72.09
61318;BME280;47201;40.428;-8.436;2023-05-19T15:07:44;100660.22;;;26.53;72.07
61318;BME280;47201;40.428;-8.436;2023-05-19T15:09:45;100651.41;;;26.64;72.65
61318;BME280;47201;40.428;-8.436;2023-05-19T15:12:04;100651.97;;;26.43;72.76
61318;BME280;47201;40.428;-8.436;2023-05-19T15:14:42;100653.56;;;26.45;73.13
61318;BME280;47201;40.428;-8.436;2023-05-19T15:17:05;100639.31;;;26.58;73.11
61318;BME280;47201;40.428;-8.436;2023-05-19T15:19:06;100629.78;;;26.54;71.79
61318;BME280;47201;40.428;-8.436;2023-05-19T15:21:06;100639.84;;;26.37;72.10
61318;BME280;47201;40.428;-8.436;2023-05-19T15:23:07;100655.59;;;26.16;71.93
61318;BME280;47201;40.428;-8.436;2023-05-19T15:25:08;100648.19;;;26.20;72.83
61318;BME280;47201;40.428;-8.436;2023-05-19T15:27:09;100645.28;;;26.23;72.38
61318;BME280;47201;40.428;-8.436;2023-05-19T15:29:10;100640.81;;;26.23;72.13
61318;BME280;47201;40.428;-8.436;2023-05-19T15:31:29;100629.03;;;26.39;72.14
61318;BME280;47201;40.428;-8.436;2023-05-19T15:33:30;100623.69;;;26.39;72.09
61318;BME280;47201;40.428;-8.436;2023-05-19T15:35:49;100634.72;;;26.47;72.24
61318;BME280;47201;40.428;-8.436;2023-05-19T15:38:09;100623.44;;;26.42;72.12
61318;BME280;47201;40.428;-8.436;2023-05-19T15:40:10;100615.72;;;26.50;72.56
61318;BME280;47201;40.428;-8.436;2023-05-19T15:42:11;100620.97;;;26.52;71.69
61318;BME280;47201;40.428;-8.436;2023-05-19T15:44:49;100610.38;;;26.37;71.56
61318;BME280;47201;40.428;-8.436;2023-05-19T15:49:08;100616.59;;;26.38;71.79
61318;BME280;47201;40.428;-8.436;2023-05-19T15:51:28;100617.25;;;25.88;72.07
61318;BME280;47201;40.428;-8.436;2023-05-19T15:53:47;100607.81;;;26.10;72.02
61318;BME280;47201;40.428;-8.436;2023-05-19T15:56:06;100611.34;;;26.23;71.44
61318;BME280;47201;40.428;-8.436;2023-05-19T15:58:07;100600.31;;;26.28;71.43
61318;BME280;47201;40.428;-8.436;2023-05-19T16:00:09;100600.19;;;26.17;71.72
61318;BME280;47201;40.428;-8.436;2023-05-19T16:02:10;100598.25;;;26.19;71.37
61318;BME280;47201;40.428;-8.436;2023-05-19T16:04:11;100596.44;;;26.19;71.38
61318;BME280;47201;40.428;-8.436;2023-05-19T16:06:13;100599.31;;;26.29;71.51
61318;BME280;47201;40.428;-8.436;2023-05-19T16:08:13;100601.25;;;26.40;72.03
61318;BME280;47201;40.428;-8.436;2023-05-19T16:10:14;100596.44;;;26.45;70.99
61318;BME280;47201;40.428;-8.436;2023-05-19T16:12:15;100600.59;;;26.36;71.21
61318;BME280;47201;40.428;-8.436;2023-05-19T16:14:15;100593.75;;;26.32;71.56
61318;BME280;47201;40.428;-8.436;2023-05-19T16:16:34;100597.06;;;26.36;71.50
61318;BME280;47201;40.428;-8.436;2023-05-19T16:18:35;100596.13;;;26.24;71.73
61318;BME280;47201;40.428;-8.436;2023-05-19T16:20:36;100602.44;;;26.23;72.18
61318;BME280;47201;40.428;-8.436;2023-05-19T16:22:36;100612.19;;;26.37;73.03
61318;BME280;47201;40.428;-8.436;2023-05-19T16:24:37;100600.53;;;26.38;78.78
61318;BME280;47201;40.428;-8.436;2023-05-19T16:26:38;100594.50;;;26.08;80.87
61318;BME280;47201;40.428;-8.436;2023-05-19T16:28:38;100594.41;;;26.10;81.83
61318;BME280;47201;40.428;-8.436;2023-05-19T16:30:58;100591.44;;;26.00;82.48
61318;BME280;47201;40.428;-8.436;2023-05-19T16:33:18;100590.69;;;25.85;82.10
61318;BME280;47201;40.428;-8.436;2023-05-19T16:35:22;100580.38;;;25.66;83.28
61318;BME280;47201;40.428;-8.436;2023-05-19T16:37:23;100575.50;;;25.45;83.48
61318;BME280;47201;40.428;-8.436;2023-05-19T16:39:42;100569.22;;;25.17;83.46
61318;BME280;47201;40.428;-8.436;2023-05-19T16:41:43;100578.25;;;25.02;83.12
61318;BME280;47201;40.428;-8.436;2023-05-19T16:44:05;100582.97;;;24.84;83.85
61318;BME280;47201;40.428;-8.436;2023-05-19T16:46:06;100579.47;;;24.69;84.84
61318;BME280;47201;40.428;-8.436;2023-05-19T16:48:28;100573.53;;;24.64;85.00
61318;BME280;47201;40.428;-8.436;2023-05-19T16:50:28;100571.69;;;24.50;85.33
61318;BME280;47201;40.428;-8.436;2023-05-19T16:52:29;100573.88;;;24.43;85.70
61318;BME280;47201;40.428;-8.436;2023-05-19T16:54:48;100573.50;;;24.20;85.85
61318;BME280;47201;40.428;-8.436;2023-05-19T16:57:07;100581.31;;;24.09;85.78
61318;BME280;47201;40.428;-8.436;2023-05-19T16:59:09;100582.53;;;24.03;86.23
61318;BME280;47201;40.428;-8.436;2023-05-19T17:01:28;100579.97;;;24.02;86.62
61318;BME280;47201;40.428;-8.436;2023-05-19T17:03:46;100585.56;;;23.97;86.08
61318;BME280;47201;40.428;-8.436;2023-05-19T17:06:05;100574.28;;;23.92;86.55
61318;BME280;47201;40.428;-8.436;2023-05-19T17:08:24;100574.41;;;23.74;87.09
61318;BME280;47201;40.428;-8.436;2023-05-19T17:10:25;100578.72;;;23.47;87.76
61318;BME280;47201;40.428;-8.436;2023-05-19T17:12:25;100574.78;;;23.38;88.32
61318;BME280;47201;40.428;-8.436;2023-05-19T17:14:26;100574.78;;;23.38;88.03
61318;BME280;47201;40.428;-8.436;2023-05-19T17:16:26;100577.34;;;23.39;87.67
61318;BME280;47201;40.428;-8.436;2023-05-19T17:18:28;100571.91;;;23.41;88.03
61318;BME280;47201;40.428;-8.436;2023-05-19T17:20:30;100573.91;;;23.37;87.79
61318;BME280;47201;40.428;-8.436;2023-05-19T17:22:31;100574.34;;;23.29;87.75
61318;BME280;47201;40.428;-8.436;2023-05-19T17:24:34;100574.78;;;23.22;88.22
61318;BME280;47201;40.428;-8.436;2023-05-19T17:26:35;100581.28;;;23.16;88.45
61318;BME280;47201;40.428;-8.436;2023-05-19T17:28:35;100575.66;;;23.22;89.19
61318;BME280;47201;40.428;-8.436;2023-05-19T17:30:38;100578.91;;;23.27;89.15
61318;BME280;47201;40.428;-8.436;2023-05-19T17:32:39;100572.38;;;23.17;88.93
61318;BME280;47201;40.428;-8.436;2023-05-19T17:34:39;100575.94;;;23.16;89.61
61318;BME280;47201;40.428;-8.436;2023-05-19T17:36:41;100571.91;;;23.09;89.39
61318;BME280;47201;40.428;-8.436;2023-05-19T17:38:41;100573.56;;;23.11;89.96
61318;BME280;47201;40.428;-8.436;2023-05-19T17:40:42;100572.69;;;23.11;89.39
61318;BME280;47201;40.428;-8.436;2023-05-19T17:42:42;100581.38;;;22.98;89.40
61318;BME280;47201;40.428;-8.436;2023-05-19T17:44:44;100579.91;;;22.93;89.51
61318;BME280;47201;40.428;-8.436;2023-05-19T17:46:44;100575.75;;;22.87;90.11
61318;BME280;47201;40.428;-8.436;2023-05-19T17:48:45;100570.97;;;22.78;90.28
61318;BME280;47201;40.428;-8.436;2023-05-19T17:50:46;100567.06;;;22.68;90.14
61318;BME280;47201;40.428;-8.436;2023-05-19T17:53:05;100566.53;;;22.61;90.03
61318;BME280;47201;40.428;-8.436;2023-05-19T17:55:26;100567.50;;;22.60;90.68
61318;BME280;47201;40.428;-8.436;2023-05-19T17:57:29;100564.47;;;22.50;91.08
61318;BME280;47201;40.428;-8.436;2023-05-19T17:59:43;100567.31;;;22.47;91.33
61318;BME280;47201;40.428;-8.436;2023-05-19T18:01:44;100570.13;;;22.44;90.92
61318;BME280;47201;40.428;-8.436;2023-05-19T18:04:04;100571.84;;;22.27;90.80
61318;BME280;47201;40.428;-8.436;2023-05-19T18:08:44;100569.97;;;22.12;90.43
61318;BME280;47201;40.428;-8.436;2023-05-19T18:10:49;100576.88;;;21.98;90.23
61318;BME280;47201;40.428;-8.436;2023-05-19T18:12:51;100583.22;;;21.96;90.60
61318;BME280;47201;40.428;-8.436;2023-05-19T18:17:49;100587.84;;;21.57;91.86
61318;BME280;47201;40.428;-8.436;2023-05-19T18:19:49;100580.88;;;21.53;92.51
61318;BME280;47201;40.428;-8.436;2023-05-19T18:21:50;100585.66;;;21.46;93.08
61318;BME280;47201;40.428;-8.436;2023-05-19T18:23:51;100590.28;;;21.43;93.39
61318;BME280;47201;40.428;-8.436;2023-05-19T18:25:51;100590.50;;;21.38;93.52
61318;BME280;47201;40.428;-8.436;2023-05-19T18:28:11;100591.81;;;21.29;94.19
61318;BME280;47201;40.428;-8.436;2023-05-19T18:38:07;100591.16;;;21.05;94.82
61318;BME280;47201;40.428;-8.436;2023-05-19T18:40:08;100586.88;;;21.02;95.05
61318;BME280;47201;40.428;-8.436;2023-05-19T18:42:09;100594.03;;;21.00;95.48
61318;BME280;47201;40.428;-8.436;2023-05-19T18:44:10;100589.81;;;20.96;95.37
61318;BME280;47201;40.428;-8.436;2023-05-19T18:51:27;100595.00;;;20.80;95.54
61318;BME280;47201;40.428;-8.436;2023-05-19T18:53:27;100576.59;;;20.75;95.54
61318;BME280;47201;40.428;-8.436;2023-05-19T18:55:30;100587.38;;;20.72;95.72
61318;BME280;47201;40.428;-8.436;2023-05-19T19:00:08;100586.28;;;20.56;96.33
61318;BME280;47201;40.428;-8.436;2023-05-19T19:04:29;100578.25;;;20.38;96.33
61318;BME280;47201;40.428;-8.436;2023-05-19T19:07:07;100583.88;;;20.31;96.90
61318;BME280;47201;40.428;-8.436;2023-05-19T19:09:08;100586.88;;;20.23;97.09
61318;BME280;47201;40.428;-8.436;2023-05-19T19:11:09;100593.41;;;20.16;97.61
61318;BME280;47201;40.428;-8.436;2023-05-19T19:13:11;100588.47;;;20.06;97.65
61318;BME280;47201;40.428;-8.436;2023-05-19T19:15:11;100593.16;;;20.00;98.12
61318;BME280;47201;40.428;-8.436;2023-05-19T19:17:12;100601.47;;;19.92;97.90
61318;BME280;47201;40.428;-8.436;2023-05-19T19:19:12;100600.00;;;19.85;98.37
61318;BME280;47201;40.428;-8.436;2023-05-19T19:21:13;100597.69;;;19.75;98.52
61318;BME280;47201;40.428;-8.436;2023-05-19T19:23:14;100592.66;;;19.69;99.12
61318;BME280;47201;40.428;-8.436;2023-05-19T19:25:14;100598.47;;;19.57;99.00
61318;BME280;47201;40.428;-8.436;2023-05-19T19:27:35;100605.88;;;19.48;99.37
61318;BME280;47201;40.428;-8.436;2023-05-19T19:29:35;100603.47;;;19.42;99.77
61318;BME280;47201;40.428;-8.436;2023-05-19T19:31:55;100604.66;;;19.35;100.00
61318;BME280;47201;40.428;-8.436;2023-05-19T19:34:14;100608.56;;;19.25;100.00
61318;BME280;47201;40.428;-8.436;2023-05-19T19:36:35;100608.94;;;19.15;100.00
61318;BME280;47201;40.428;-8.436;2023-05-19T19:38:36;100602.03;;;19.11;100.00
61318;BME280;47201;40.428;-8.436;2023-05-19T19:40:37;100607.63;;;19.03;100.00
61318;BME280;47201;40.428;-8.436;2023-05-19T19:42:38;100607.03;;;18.95;100.00
61318;BME280;47201;40.428;-8.436;2023-05-19T19:44:39;100609.16;;;18.85;100.00
61318;BME280;47201;40.428;-8.436;2023-05-19T19:46:59;100612.91;;;18.80;100.00
61318;BME280;47201;40.428;-8.436;2023-05-19T19:48:59;100614.16;;;18.69;100.00
61318;BME280;47201;40.428;-8.436;2023-05-19T19:51:00;100616.22;;;18.61;100.00
61318;BME280;47201;40.428;-8.436;2023-05-19T19:53:01;100610.50;;;18.48;100.00
61318;BME280;47201;40.428;-8.436;2023-05-19T19:55:05;100609.13;;;18.38;100.00
61318;BME280;47201;40.428;-8.436;2023-05-19T19:57:05;100620.88;;;18.29;100.00
61318;BME280;47201;40.428;-8.436;2023-05-19T19:59:06;100620.25;;;18.22;100.00
61318;BME280;47201;40.428;-8.436;2023-05-19T20:01:07;100617.91;;;18.13;100.00
61318;BME280;47201;40.428;-8.436;2023-05-19T20:03:07;100618.19;;;18.05;100.00
61318;BME280;47201;40.428;-8.436;2023-05-19T20:05:08;100620.22;;;17.97;100.00
61318;BME280;47201;40.428;-8.436;2023-05-19T20:07:09;100620.66;;;17.83;100.00
61318;BME280;47201;40.428;-8.436;2023-05-19T20:09:10;100626.97;;;17.79;100.00
61318;BME280;47201;40.428;-8.436;2023-05-19T20:11:30;100619.13;;;17.76;100.00
61318;BME280;47201;40.428;-8.436;2023-05-19T20:13:50;100626.97;;;17.79;100.00
61318;BME280;47201;40.428;-8.436;2023-05-19T20:15:52;100629.78;;;17.73;100.00
61318;BME280;47201;40.428;-8.436;2023-05-19T20:17:53;100631.72;;;17.68;100.00
61318;BME280;47201;40.428;-8.436;2023-05-19T20:20:12;100632.75;;;17.64;100.00
61318;BME280;47201;40.428;-8.436;2023-05-19T20:22:13;100624.97;;;17.59;100.00
61318;BME280;47201;40.428;-8.436;2023-05-19T20:24:14;100630.41;;;17.54;100.00
61318;BME280;47201;40.428;-8.436;2023-05-19T20:26:15;100628.66;;;17.53;100.00
61318;BME280;47201;40.428;-8.436;2023-05-19T20:28:35;100627.97;;;17.47;100.00
61318;BME280;47201;40.428;-8.436;2023-05-19T20:30:37;100629.13;;;17.38;100.00
61318;BME280;47201;40.428;-8.436;2023-05-19T20:32:38;100630.16;;;17.34;100.00
61318;BME280;47201;40.428;-8.436;2023-05-19T20:34:39;100633.78;;;17.31;100.00
61318;BME280;47201;40.428;-8.436;2023-05-19T20:36:40;100642.63;;;17.28;100.00
61318;BME280;47201;40.428;-8.436;2023-05-19T20:38:41;100639.31;;;17.22;100.00
61318;BME280;47201;40.428;-8.436;2023-05-19T20:40:42;100641.13;;;17.20;100.00
61318;BME280;47201;40.428;-8.436;2023-05-19T20:43:01;100636.91;;;17.14;98.27
61318;BME280;47201;40.428;-8.436;2023-05-19T20:45:21;100640.63;;;17.07;96.02
61318;BME280;47201;40.428;-8.436;2023-05-19T20:47:23;100640.81;;;17.01;94.40
61318;BME280;47201;40.428;-8.436;2023-05-19T20:49:23;100638.13;;;17.02;92.56
61318;BME280;47201;40.428;-8.436;2023-05-19T20:51:25;100641.78;;;16.98;89.94
61318;BME280;47201;40.428;-8.436;2023-05-19T20:53:26;100642.81;;;16.92;87.99
61318;BME280;47201;40.428;-8.436;2023-05-19T20:55:45;100648.97;;;16.91;85.71
61318;BME280;47201;40.428;-8.436;2023-05-19T21:00:06;100651.00;;;16.81;82.25
61318;BME280;47201;40.428;-8.436;2023-05-19T21:02:26;100649.38;;;16.77;80.98